sensor_id;sensor_type;location;lat;lon;timestamp;P1;durP1;ratioP1;P2;durP2;ratioP2
9496;SDS011;4786;51.270;4.456;2024-03-29T00:00:43;3.97;;;1.50;;
9496;SDS011;4786;51.270;4.456;2024-03-29T00:03:11;4.20;;;1.40;;
9496;SDS011;4786;51.270;4.456;2024-03-29T00:05:37;4.97;;;1.90;;
9496;SDS011;4786;51.270;4.456;2024-03-29T00:08:03;4.40;;;1.57;;
9496;SDS011;4786;51.270;4.456;2024-03-29T00:10:29;3.33;;;1.70;;
9496;SDS011;4786;51.270;4.456;2024-03-29T00:12:55;3.80;;;1.57;;
9496;SDS011;4786;51.270;4.456;2024-03-29T00:15:21;6.27;;;2.00;;
9496;SDS011;4786;51.270;4.456;2024-03-29T00:17:47;5.27;;;1.70;;
9496;SDS011;4786;51.270;4.456;2024-03-29T00:20:13;4.43;;;1.60;;
9496;SDS011;4786;51.270;4.456;2024-03-29T00:22:38;5.53;;;1.50;;
9496;SDS011;4786;51.270;4.456;2024-03-29T00:25:05;5.60;;;1.77;;
9496;SDS011;4786;51.270;4.456;2024-03-29T00:27:31;5.90;;;1.60;;
9496;SDS011;4786;51.270;4.456;2024-03-29T00:29:57;3.53;;;1.60;;
9496;SDS011;4786;51.270;4.456;2024-03-29T00:32:23;3.60;;;1.43;;
9496;SDS011;4786;51.270;4.456;2024-03-29T00:34:49;6.43;;;1.90;;
9496;SDS011;4786;51.270;4.456;2024-03-29T00:37:16;4.10;;;1.80;;
9496;SDS011;4786;51.270;4.456;2024-03-29T00:39:42;5.17;;;1.63;;
9496;SDS011;4786;51.270;4.456;2024-03-29T00:42:08;3.27;;;1.50;;
9496;SDS011;4786;51.270;4.456;2024-03-29T00:44:37;3.93;;;1.60;;
9496;SDS011;4786;51.270;4.456;2024-03-29T00:47:06;3.10;;;1.70;;
9496;SDS011;4786;51.270;4.456;2024-03-29T00:49:32;2.37;;;1.50;;
9496;SDS011;4786;51.270;4.456;2024-03-29T00:51:58;3.67;;;1.70;;
9496;SDS011;4786;51.270;4.456;2024-03-29T00:54:24;5.03;;;1.70;;
9496;SDS011;4786;51.270;4.456;2024-03-29T00:56:50;4.63;;;1.37;;
9496;SDS011;4786;51.270;4.456;2024-03-29T00:59:16;3.73;;;1.50;;
9496;SDS011;4786;51.270;4.456;2024-03-29T01:01:42;8.17;;;2.03;;
9496;SDS011;4786;51.270;4.456;2024-03-29T01:04:08;3.50;;;1.50;;
9496;SDS011;4786;51.270;4.456;2024-03-29T01:06:34;5.47;;;1.80;;
9496;SDS011;4786;51.270;4.456;2024-03-29T01:09:00;4.60;;;1.87;;
9496;SDS011;4786;51.270;4.456;2024-03-29T01:11:26;3.10;;;1.50;;
9496;SDS011;4786;51.270;4.456;2024-03-29T01:13:52;5.43;;;1.57;;
9496;SDS011;4786;51.270;4.456;2024-03-29T01:16:18;4.33;;;1.77;;
9496;SDS011;4786;51.270;4.456;2024-03-29T01:18:44;3.77;;;1.57;;
9496;SDS011;4786;51.270;4.456;2024-03-29T01:21:11;2.53;;;1.50;;
9496;SDS011;4786;51.270;4.456;2024-03-29T01:23:38;3.73;;;1.80;;
9496;SDS011;4786;51.270;4.456;2024-03-29T01:26:04;4.37;;;2.00;;
9496;SDS011;4786;51.270;4.456;2024-03-29T01:28:31;4.77;;;1.80;;
9496;SDS011;4786;51.270;4.456;2024-03-29T01:30:57;4.87;;;1.90;;
9496;SDS011;4786;51.270;4.456;2024-03-29T01:33:25;6.47;;;1.97;;
9496;SDS011;4786;51.270;4.456;2024-03-29T01:35:51;5.23;;;2.03;;
9496;SDS011;4786;51.270;4.456;2024-03-29T01:38:17;5.80;;;1.80;;
9496;SDS011;4786;51.270;4.456;2024-03-29T01:40:43;4.27;;;1.87;;
9496;SDS011;4786;51.270;4.456;2024-03-29T01:43:09;5.80;;;1.80;;
9496;SDS011;4786;51.270;4.456;2024-03-29T01:45:35;4.57;;;1.70;;
9496;SDS011;4786;51.270;4.456;2024-03-29T01:48:03;8.37;;;1.43;;
9496;SDS011;4786;51.270;4.456;2024-03-29T01:50:30;4.60;;;1.80;;
9496;SDS011;4786;51.270;4.456;2024-03-29T01:52:56;4.20;;;1.67;;
9496;SDS011;4786;51.270;4.456;2024-03-29T01:55:23;3.13;;;1.73;;
9496;SDS011;4786;51.270;4.456;2024-03-29T01:57:49;3.30;;;1.30;;
9496;SDS011;4786;51.270;4.456;2024-03-29T02:00:16;4.43;;;1.70;;
9496;SDS011;4786;51.270;4.456;2024-03-29T02:02:42;2.60;;;1.60;;
9496;SDS011;4786;51.270;4.456;2024-03-29T02:05:08;4.07;;;1.60;;
9496;SDS011;4786;51.270;4.456;2024-03-29T02:07:35;7.07;;;1.77;;
9496;SDS011;4786;51.270;4.456;2024-03-29T02:10:01;1.97;;;1.20;;
9496;SDS011;4786;51.270;4.456;2024-03-29T02:12:28;4.47;;;1.33;;
9496;SDS011;4786;51.270;4.456;2024-03-29T02:14:53;5.20;;;1.57;;
9496;SDS011;4786;51.270;4.456;2024-03-29T02:17:19;3.27;;;1.27;;
9496;SDS011;4786;51.270;4.456;2024-03-29T02:19:44;3.47;;;1.17;;
9496;SDS011;4786;51.270;4.456;2024-03-29T02:22:10;4.10;;;1.40;;
9496;SDS011;4786;51.270;4.456;2024-03-29T02:24:40;4.47;;;1.53;;
9496;SDS011;4786;51.270;4.456;2024-03-29T02:27:06;2.93;;;1.50;;
9496;SDS011;4786;51.270;4.456;2024-03-29T02:29:32;3.90;;;1.23;;
9496;SDS011;4786;51.270;4.456;2024-03-29T02:32:02;2.57;;;1.40;;
9496;SDS011;4786;51.270;4.456;2024-03-29T02:34:28;2.40;;;1.30;;
9496;SDS011;4786;51.270;4.456;2024-03-29T02:36:54;2.60;;;1.30;;
9496;SDS011;4786;51.270;4.456;2024-03-29T02:39:21;4.17;;;1.37;;
9496;SDS011;4786;51.270;4.456;2024-03-29T02:41:47;1.83;;;1.20;;
9496;SDS011;4786;51.270;4.456;2024-03-29T02:44:13;2.70;;;1.03;;
9496;SDS011;4786;51.270;4.456;2024-03-29T02:46:40;3.23;;;0.90;;
9496;SDS011;4786;51.270;4.456;2024-03-29T02:49:07;3.00;;;0.93;;
9496;SDS011;4786;51.270;4.456;2024-03-29T02:51:32;3.07;;;1.00;;
9496;SDS011;4786;51.270;4.456;2024-03-29T02:53:58;3.03;;;1.40;;
9496;SDS011;4786;51.270;4.456;2024-03-29T02:56:24;2.60;;;1.00;;
9496;SDS011;4786;51.270;4.456;2024-03-29T02:58:49;1.87;;;0.90;;
9496;SDS011;4786;51.270;4.456;2024-03-29T03:01:16;1.23;;;0.80;;
9496;SDS011;4786;51.270;4.456;2024-03-29T03:03:42;0.87;;;0.87;;
9496;SDS011;4786;51.270;4.456;2024-03-29T03:06:07;0.70;;;0.70;;
9496;SDS011;4786;51.270;4.456;2024-03-29T03:08:33;2.37;;;0.80;;
9496;SDS011;4786;51.270;4.456;2024-03-29T03:11:17;1.50;;;0.80;;
9496;SDS011;4786;51.270;4.456;2024-03-29T03:13:43;1.23;;;0.70;;
9496;SDS011;4786;51.270;4.456;2024-03-29T03:16:09;1.10;;;0.87;;
9496;SDS011;4786;51.270;4.456;2024-03-29T03:18:34;1.17;;;0.77;;
9496;SDS011;4786;51.270;4.456;2024-03-29T03:21:01;2.30;;;0.77;;
9496;SDS011;4786;51.270;4.456;2024-03-29T03:23:27;2.33;;;0.77;;
9496;SDS011;4786;51.270;4.456;2024-03-29T03:26:00;0.60;;;0.60;;
9496;SDS011;4786;51.270;4.456;2024-03-29T03:28:28;1.50;;;0.63;;
9496;SDS011;4786;51.270;4.456;2024-03-29T03:30:54;0.80;;;0.63;;
9496;SDS011;4786;51.270;4.456;2024-03-29T03:33:21;1.80;;;0.70;;
9496;SDS011;4786;51.270;4.456;2024-03-29T03:35:47;0.80;;;0.80;;
9496;SDS011;4786;51.270;4.456;2024-03-29T03:38:13;0.60;;;0.60;;
9496;SDS011;4786;51.270;4.456;2024-03-29T03:40:39;0.80;;;0.67;;
9496;SDS011;4786;51.270;4.456;2024-03-29T03:43:05;1.70;;;0.90;;
9496;SDS011;4786;51.270;4.456;2024-03-29T03:45:34;1.43;;;0.93;;
9496;SDS011;4786;51.270;4.456;2024-03-29T03:48:05;1.67;;;0.90;;
9496;SDS011;4786;51.270;4.456;2024-03-29T03:50:33;1.23;;;0.73;;
9496;SDS011;4786;51.270;4.456;2024-03-29T03:52:59;1.97;;;0.80;;
9496;SDS011;4786;51.270;4.456;2024-03-29T03:55:25;1.50;;;1.20;;
9496;SDS011;4786;51.270;4.456;2024-03-29T03:57:51;1.30;;;0.90;;
9496;SDS011;4786;51.270;4.456;2024-03-29T04:00:19;2.03;;;1.17;;
9496;SDS011;4786;51.270;4.456;2024-03-29T04:02:52;2.27;;;1.20;;
9496;SDS011;4786;51.270;4.456;2024-03-29T04:05:18;3.83;;;1.63;;
9496;SDS011;4786;51.270;4.456;2024-03-29T04:07:45;4.37;;;1.50;;
9496;SDS011;4786;51.270;4.456;2024-03-29T04:10:11;2.27;;;1.30;;
9496;SDS011;4786;51.270;4.456;2024-03-29T04:12:37;2.00;;;1.20;;
9496;SDS011;4786;51.270;4.456;2024-03-29T04:15:03;2.13;;;1.30;;
9496;SDS011;4786;51.270;4.456;2024-03-29T04:17:30;3.33;;;1.40;;
9496;SDS011;4786;51.270;4.456;2024-03-29T04:19:59;3.77;;;1.33;;
9496;SDS011;4786;51.270;4.456;2024-03-29T04:22:27;2.80;;;1.47;;
9496;SDS011;4786;51.270;4.456;2024-03-29T04:24:53;9.17;;;1.57;;
9496;SDS011;4786;51.270;4.456;2024-03-29T04:27:19;2.30;;;1.27;;
9496;SDS011;4786;51.270;4.456;2024-03-29T04:29:45;3.93;;;1.30;;
9496;SDS011;4786;51.270;4.456;2024-03-29T04:32:10;2.80;;;1.33;;
9496;SDS011;4786;51.270;4.456;2024-03-29T04:34:36;4.23;;;1.33;;
9496;SDS011;4786;51.270;4.456;2024-03-29T04:37:02;2.37;;;1.10;;
9496;SDS011;4786;51.270;4.456;2024-03-29T04:39:27;1.47;;;1.03;;
9496;SDS011;4786;51.270;4.456;2024-03-29T04:41:53;1.80;;;1.37;;
9496;SDS011;4786;51.270;4.456;2024-03-29T04:44:26;3.93;;;1.50;;
9496;SDS011;4786;51.270;4.456;2024-03-29T04:46:53;2.17;;;1.17;;
9496;SDS011;4786;51.270;4.456;2024-03-29T04:49:19;1.57;;;1.00;;
9496;SDS011;4786;51.270;4.456;2024-03-29T04:51:55;2.73;;;0.90;;
9496;SDS011;4786;51.270;4.456;2024-03-29T04:54:22;2.80;;;1.20;;
9496;SDS011;4786;51.270;4.456;2024-03-29T04:56:48;4.00;;;1.40;;
9496;SDS011;4786;51.270;4.456;2024-03-29T04:59:14;3.03;;;1.23;;
9496;SDS011;4786;51.270;4.456;2024-03-29T05:01:42;2.93;;;1.30;;
9496;SDS011;4786;51.270;4.456;2024-03-29T05:04:15;2.80;;;1.43;;
9496;SDS011;4786;51.270;4.456;2024-03-29T05:06:50;5.03;;;1.30;;
9496;SDS011;4786;51.270;4.456;2024-03-29T05:09:17;4.67;;;1.43;;
9496;SDS011;4786;51.270;4.456;2024-03-29T05:11:42;2.47;;;1.60;;
9496;SDS011;4786;51.270;4.456;2024-03-29T05:14:08;2.40;;;1.20;;
9496;SDS011;4786;51.270;4.456;2024-03-29T05:16:35;2.93;;;1.30;;
9496;SDS011;4786;51.270;4.456;2024-03-29T05:19:01;3.00;;;1.20;;
9496;SDS011;4786;51.270;4.456;2024-03-29T05:21:26;3.13;;;1.67;;
9496;SDS011;4786;51.270;4.456;2024-03-29T05:23:52;2.63;;;1.20;;
9496;SDS011;4786;51.270;4.456;2024-03-29T05:26:18;2.00;;;1.10;;
9496;SDS011;4786;51.270;4.456;2024-03-29T05:28:44;2.90;;;1.60;;
9496;SDS011;4786;51.270;4.456;2024-03-29T05:31:13;3.43;;;1.50;;
9496;SDS011;4786;51.270;4.456;2024-03-29T05:33:42;3.30;;;1.40;;
9496;SDS011;4786;51.270;4.456;2024-03-29T05:36:08;4.77;;;1.40;;
9496;SDS011;4786;51.270;4.456;2024-03-29T05:38:36;5.30;;;1.30;;
9496;SDS011;4786;51.270;4.456;2024-03-29T05:41:02;1.90;;;1.30;;
9496;SDS011;4786;51.270;4.456;2024-03-29T05:43:29;3.77;;;1.23;;
9496;SDS011;4786;51.270;4.456;2024-03-29T05:45:54;3.80;;;1.20;;
9496;SDS011;4786;51.270;4.456;2024-03-29T05:48:20;3.03;;;1.43;;
9496;SDS011;4786;51.270;4.456;2024-03-29T05:50:46;2.83;;;1.30;;
9496;SDS011;4786;51.270;4.456;2024-03-29T05:53:11;1.93;;;1.07;;
9496;SDS011;4786;51.270;4.456;2024-03-29T05:55:37;2.07;;;1.23;;
9496;SDS011;4786;51.270;4.456;2024-03-29T05:58:03;1.20;;;1.10;;
9496;SDS011;4786;51.270;4.456;2024-03-29T06:00:31;2.37;;;1.50;;
9496;SDS011;4786;51.270;4.456;2024-03-29T06:02:59;2.13;;;1.40;;
9496;SDS011;4786;51.270;4.456;2024-03-29T06:05:27;2.40;;;1.10;;
9496;SDS011;4786;51.270;4.456;2024-03-29T06:07:53;2.87;;;1.47;;
9496;SDS011;4786;51.270;4.456;2024-03-29T06:10:19;1.90;;;1.13;;
9496;SDS011;4786;51.270;4.456;2024-03-29T06:12:45;1.87;;;1.20;;
9496;SDS011;4786;51.270;4.456;2024-03-29T06:15:10;3.03;;;1.90;;
9496;SDS011;4786;51.270;4.456;2024-03-29T06:17:55;2.57;;;1.30;;
9496;SDS011;4786;51.270;4.456;2024-03-29T06:20:20;2.20;;;1.90;;
9496;SDS011;4786;51.270;4.456;2024-03-29T06:22:46;3.47;;;1.53;;
9496;SDS011;4786;51.270;4.456;2024-03-29T06:25:12;2.30;;;1.60;;
9496;SDS011;4786;51.270;4.456;2024-03-29T06:27:38;1.97;;;1.33;;
9496;SDS011;4786;51.270;4.456;2024-03-29T06:30:04;4.13;;;1.80;;
9496;SDS011;4786;51.270;4.456;2024-03-29T06:32:34;2.57;;;1.80;;
9496;SDS011;4786;51.270;4.456;2024-03-29T06:35:00;1.73;;;1.40;;
9496;SDS011;4786;51.270;4.456;2024-03-29T06:37:26;1.40;;;1.10;;
9496;SDS011;4786;51.270;4.456;2024-03-29T06:39:52;2.40;;;1.40;;
9496;SDS011;4786;51.270;4.456;2024-03-29T06:42:18;1.10;;;1.00;;
9496;SDS011;4786;51.270;4.456;2024-03-29T06:44:44;1.97;;;1.00;;
9496;SDS011;4786;51.270;4.456;2024-03-29T06:47:10;2.13;;;1.10;;
9496;SDS011;4786;51.270;4.456;2024-03-29T06:49:36;1.43;;;0.90;;
9496;SDS011;4786;51.270;4.456;2024-03-29T06:52:02;1.17;;;0.80;;
9496;SDS011;4786;51.270;4.456;2024-03-29T06:54:28;1.97;;;1.00;;
9496;SDS011;4786;51.270;4.456;2024-03-29T06:56:55;3.03;;;1.30;;
9496;SDS011;4786;51.270;4.456;2024-03-29T06:59:21;1.47;;;1.33;;
9496;SDS011;4786;51.270;4.456;2024-03-29T07:01:47;2.40;;;1.30;;
9496;SDS011;4786;51.270;4.456;2024-03-29T07:04:16;2.00;;;1.40;;
9496;SDS011;4786;51.270;4.456;2024-03-29T07:06:52;1.53;;;1.30;;
9496;SDS011;4786;51.270;4.456;2024-03-29T07:09:19;1.97;;;1.40;;
9496;SDS011;4786;51.270;4.456;2024-03-29T07:11:49;2.43;;;1.40;;
9496;SDS011;4786;51.270;4.456;2024-03-29T07:14:16;2.00;;;1.40;;
9496;SDS011;4786;51.270;4.456;2024-03-29T07:16:43;2.17;;;1.40;;
9496;SDS011;4786;51.270;4.456;2024-03-29T07:19:10;2.33;;;1.63;;
9496;SDS011;4786;51.270;4.456;2024-03-29T07:21:41;2.13;;;1.40;;
9496;SDS011;4786;51.270;4.456;2024-03-29T07:24:08;2.43;;;1.37;;
9496;SDS011;4786;51.270;4.456;2024-03-29T07:26:34;1.30;;;1.20;;
9496;SDS011;4786;51.270;4.456;2024-03-29T07:29:00;2.47;;;1.30;;
9496;SDS011;4786;51.270;4.456;2024-03-29T07:31:26;2.40;;;1.30;;
9496;SDS011;4786;51.270;4.456;2024-03-29T07:33:51;1.90;;;1.23;;
9496;SDS011;4786;51.270;4.456;2024-03-29T07:36:17;1.77;;;1.30;;
9496;SDS011;4786;51.270;4.456;2024-03-29T07:38:43;1.33;;;1.10;;
9496;SDS011;4786;51.270;4.456;2024-03-29T07:41:09;2.20;;;1.20;;
9496;SDS011;4786;51.270;4.456;2024-03-29T07:43:51;2.97;;;1.47;;
9496;SDS011;4786;51.270;4.456;2024-03-29T07:46:19;2.67;;;1.23;;
9496;SDS011;4786;51.270;4.456;2024-03-29T07:48:46;3.73;;;1.40;;
9496;SDS011;4786;51.270;4.456;2024-03-29T07:51:13;2.40;;;1.40;;
9496;SDS011;4786;51.270;4.456;2024-03-29T07:53:38;2.47;;;1.60;;
9496;SDS011;4786;51.270;4.456;2024-03-29T07:56:05;2.67;;;1.53;;
9496;SDS011;4786;51.270;4.456;2024-03-29T07:58:31;1.67;;;1.43;;
9496;SDS011;4786;51.270;4.456;2024-03-29T08:00:56;2.37;;;1.50;;
9496;SDS011;4786;51.270;4.456;2024-03-29T08:03:22;3.33;;;1.70;;
9496;SDS011;4786;51.270;4.456;2024-03-29T08:05:59;2.53;;;1.80;;
9496;SDS011;4786;51.270;4.456;2024-03-29T08:08:29;2.50;;;1.80;;
9496;SDS011;4786;51.270;4.456;2024-03-29T08:10:58;2.03;;;1.33;;
9496;SDS011;4786;51.270;4.456;2024-03-29T08:13:25;2.70;;;1.50;;
9496;SDS011;4786;51.270;4.456;2024-03-29T08:15:57;3.53;;;1.57;;
9496;SDS011;4786;51.270;4.456;2024-03-29T08:18:27;4.10;;;1.60;;
9496;SDS011;4786;51.270;4.456;2024-03-29T08:20:54;3.40;;;1.47;;
9496;SDS011;4786;51.270;4.456;2024-03-29T08:23:24;3.27;;;1.70;;
9496;SDS011;4786;51.270;4.456;2024-03-29T08:25:50;4.80;;;1.80;;
9496;SDS011;4786;51.270;4.456;2024-03-29T08:28:19;3.23;;;1.57;;
9496;SDS011;4786;51.270;4.456;2024-03-29T08:30:45;2.43;;;1.50;;
9496;SDS011;4786;51.270;4.456;2024-03-29T08:33:11;2.67;;;1.70;;
9496;SDS011;4786;51.270;4.456;2024-03-29T08:35:37;2.00;;;1.63;;
9496;SDS011;4786;51.270;4.456;2024-03-29T08:38:04;2.70;;;1.77;;
9496;SDS011;4786;51.270;4.456;2024-03-29T08:40:30;2.77;;;1.60;;
9496;SDS011;4786;51.270;4.456;2024-03-29T08:42:59;4.07;;;1.80;;
9496;SDS011;4786;51.270;4.456;2024-03-29T08:45:25;5.33;;;2.30;;
9496;SDS011;4786;51.270;4.456;2024-03-29T08:47:50;5.93;;;1.80;;
9496;SDS011;4786;51.270;4.456;2024-03-29T08:50:16;3.93;;;2.30;;
9496;SDS011;4786;51.270;4.456;2024-03-29T08:52:42;5.83;;;2.10;;
9496;SDS011;4786;51.270;4.456;2024-03-29T08:55:09;4.67;;;1.90;;
9496;SDS011;4786;51.270;4.456;2024-03-29T08:57:35;3.93;;;2.00;;
9496;SDS011;4786;51.270;4.456;2024-03-29T09:00:00;2.57;;;1.80;;
9496;SDS011;4786;51.270;4.456;2024-03-29T09:02:27;2.97;;;2.10;;
9496;SDS011;4786;51.270;4.456;2024-03-29T09:04:53;7.70;;;2.70;;
9496;SDS011;4786;51.270;4.456;2024-03-29T09:07:19;4.30;;;2.43;;
9496;SDS011;4786;51.270;4.456;2024-03-29T09:09:47;4.93;;;2.40;;
9496;SDS011;4786;51.270;4.456;2024-03-29T09:12:14;3.20;;;2.40;;
9496;SDS011;4786;51.270;4.456;2024-03-29T09:14:39;5.23;;;3.00;;
9496;SDS011;4786;51.270;4.456;2024-03-29T09:17:05;5.13;;;2.13;;
9496;SDS011;4786;51.270;4.456;2024-03-29T09:19:31;3.70;;;2.17;;
9496;SDS011;4786;51.270;4.456;2024-03-29T09:21:57;4.47;;;2.30;;
9496;SDS011;4786;51.270;4.456;2024-03-29T09:24:23;3.80;;;2.20;;
9496;SDS011;4786;51.270;4.456;2024-03-29T09:26:51;2.53;;;2.00;;
9496;SDS011;4786;51.270;4.456;2024-03-29T09:29:17;3.43;;;2.07;;
9496;SDS011;4786;51.270;4.456;2024-03-29T09:31:45;3.07;;;2.07;;
9496;SDS011;4786;51.270;4.456;2024-03-29T09:34:10;2.83;;;2.07;;
9496;SDS011;4786;51.270;4.456;2024-03-29T09:36:36;4.50;;;1.80;;
9496;SDS011;4786;51.270;4.456;2024-03-29T09:39:02;4.07;;;1.93;;
9496;SDS011;4786;51.270;4.456;2024-03-29T09:41:31;4.97;;;2.00;;
9496;SDS011;4786;51.270;4.456;2024-03-29T09:44:02;2.83;;;1.83;;
9496;SDS011;4786;51.270;4.456;2024-03-29T09:46:28;3.57;;;1.97;;
9496;SDS011;4786;51.270;4.456;2024-03-29T09:48:56;2.30;;;2.00;;
9496;SDS011;4786;51.270;4.456;2024-03-29T09:51:22;2.67;;;1.70;;
9496;SDS011;4786;51.270;4.456;2024-03-29T09:53:49;2.90;;;1.90;;
9496;SDS011;4786;51.270;4.456;2024-03-29T09:56:15;2.60;;;1.83;;
9496;SDS011;4786;51.270;4.456;2024-03-29T09:58:41;4.63;;;2.27;;
9496;SDS011;4786;51.270;4.456;2024-03-29T10:01:07;3.73;;;1.73;;
9496;SDS011;4786;51.270;4.456;2024-03-29T10:03:36;2.00;;;1.83;;
9496;SDS011;4786;51.270;4.456;2024-03-29T10:06:05;2.50;;;1.73;;
9496;SDS011;4786;51.270;4.456;2024-03-29T10:08:34;3.03;;;1.97;;
9496;SDS011;4786;51.270;4.456;2024-03-29T10:11:01;2.43;;;1.80;;
9496;SDS011;4786;51.270;4.456;2024-03-29T10:13:28;3.90;;;2.00;;
9496;SDS011;4786;51.270;4.456;2024-03-29T10:15:53;4.80;;;2.00;;
9496;SDS011;4786;51.270;4.456;2024-03-29T10:18:21;5.37;;;1.70;;
9496;SDS011;4786;51.270;4.456;2024-03-29T10:21:04;6.47;;;1.67;;
9496;SDS011;4786;51.270;4.456;2024-03-29T10:23:34;3.27;;;1.80;;
9496;SDS011;4786;51.270;4.456;2024-03-29T10:26:01;1.33;;;1.20;;
9496;SDS011;4786;51.270;4.456;2024-03-29T10:28:31;3.20;;;1.87;;
9496;SDS011;4786;51.270;4.456;2024-03-29T10:30:58;2.53;;;1.50;;
9496;SDS011;4786;51.270;4.456;2024-03-29T10:33:28;3.20;;;1.93;;
9496;SDS011;4786;51.270;4.456;2024-03-29T10:36:01;3.63;;;1.50;;
9496;SDS011;4786;51.270;4.456;2024-03-29T10:38:31;4.10;;;1.77;;
9496;SDS011;4786;51.270;4.456;2024-03-29T10:40:57;3.87;;;1.60;;
9496;SDS011;4786;51.270;4.456;2024-03-29T10:43:23;4.10;;;1.70;;
9496;SDS011;4786;51.270;4.456;2024-03-29T10:45:50;1.80;;;1.30;;
9496;SDS011;4786;51.270;4.456;2024-03-29T10:48:18;1.57;;;1.20;;
9496;SDS011;4786;51.270;4.456;2024-03-29T10:50:47;1.87;;;1.20;;
9496;SDS011;4786;51.270;4.456;2024-03-29T10:53:16;4.97;;;1.47;;
9496;SDS011;4786;51.270;4.456;2024-03-29T10:55:41;1.83;;;1.40;;
9496;SDS011;4786;51.270;4.456;2024-03-29T10:58:09;1.90;;;1.20;;
9496;SDS011;4786;51.270;4.456;2024-03-29T11:00:37;1.23;;;1.13;;
9496;SDS011;4786;51.270;4.456;2024-03-29T11:03:20;1.27;;;1.10;;
9496;SDS011;4786;51.270;4.456;2024-03-29T11:05:52;2.13;;;1.30;;
9496;SDS011;4786;51.270;4.456;2024-03-29T11:08:26;1.47;;;1.10;;
9496;SDS011;4786;51.270;4.456;2024-03-29T11:10:56;2.37;;;1.30;;
9496;SDS011;4786;51.270;4.456;2024-03-29T11:16:06;1.20;;;1.10;;
9496;SDS011;4786;51.270;4.456;2024-03-29T11:18:33;3.03;;;1.13;;
9496;SDS011;4786;51.270;4.456;2024-03-29T11:21:02;1.83;;;1.40;;
9496;SDS011;4786;51.270;4.456;2024-03-29T11:23:31;2.10;;;1.37;;
9496;SDS011;4786;51.270;4.456;2024-03-29T11:25:57;1.97;;;1.20;;
9496;SDS011;4786;51.270;4.456;2024-03-29T11:30:59;2.80;;;1.00;;
9496;SDS011;4786;51.270;4.456;2024-03-29T11:33:43;4.23;;;1.37;;
9496;SDS011;4786;51.270;4.456;2024-03-29T11:38:47;1.40;;;1.20;;
9496;SDS011;4786;51.270;4.456;2024-03-29T11:41:16;3.47;;;1.20;;
9496;SDS011;4786;51.270;4.456;2024-03-29T11:43:43;3.53;;;1.27;;
9496;SDS011;4786;51.270;4.456;2024-03-29T11:46:10;2.60;;;1.30;;
9496;SDS011;4786;51.270;4.456;2024-03-29T11:48:37;2.40;;;1.30;;
9496;SDS011;4786;51.270;4.456;2024-03-29T11:51:07;1.10;;;1.00;;
9496;SDS011;4786;51.270;4.456;2024-03-29T11:53:35;2.10;;;1.30;;
9496;SDS011;4786;51.270;4.456;2024-03-29T11:56:02;3.27;;;1.40;;
9496;SDS011;4786;51.270;4.456;2024-03-29T11:58:29;1.63;;;1.30;;
9496;SDS011;4786;51.270;4.456;2024-03-29T12:00:58;2.70;;;1.10;;
9496;SDS011;4786;51.270;4.456;2024-03-29T12:03:26;1.53;;;1.13;;
9496;SDS011;4786;51.270;4.456;2024-03-29T12:05:53;1.90;;;1.20;;
9496;SDS011;4786;51.270;4.456;2024-03-29T12:08:23;1.43;;;1.07;;
9496;SDS011;4786;51.270;4.456;2024-03-29T12:10:59;1.93;;;1.40;;
9496;SDS011;4786;51.270;4.456;2024-03-29T12:13:26;1.27;;;1.07;;
9496;SDS011;4786;51.270;4.456;2024-03-29T12:15:52;3.23;;;1.47;;
9496;SDS011;4786;51.270;4.456;2024-03-29T12:18:22;1.30;;;1.10;;
9496;SDS011;4786;51.270;4.456;2024-03-29T12:20:49;1.70;;;1.20;;
9496;SDS011;4786;51.270;4.456;2024-03-29T12:23:16;1.50;;;1.20;;
9496;SDS011;4786;51.270;4.456;2024-03-29T12:25:43;1.47;;;1.37;;
9496;SDS011;4786;51.270;4.456;2024-03-29T12:28:09;1.00;;;0.90;;
9496;SDS011;4786;51.270;4.456;2024-03-29T12:30:36;1.20;;;1.10;;
9496;SDS011;4786;51.270;4.456;2024-03-29T12:33:06;0.90;;;0.90;;
9496;SDS011;4786;51.270;4.456;2024-03-29T12:35:36;1.03;;;1.00;;
9496;SDS011;4786;51.270;4.456;2024-03-29T12:38:03;4.23;;;1.10;;
9496;SDS011;4786;51.270;4.456;2024-03-29T12:40:30;1.60;;;1.10;;
9496;SDS011;4786;51.270;4.456;2024-03-29T12:43:06;1.00;;;0.90;;
9496;SDS011;4786;51.270;4.456;2024-03-29T12:45:33;1.43;;;1.03;;
9496;SDS011;4786;51.270;4.456;2024-03-29T12:47:59;1.83;;;1.00;;
9496;SDS011;4786;51.270;4.456;2024-03-29T12:50:26;2.10;;;1.00;;
9496;SDS011;4786;51.270;4.456;2024-03-29T12:53:05;1.57;;;1.20;;
9496;SDS011;4786;51.270;4.456;2024-03-29T12:55:32;1.43;;;0.90;;
9496;SDS011;4786;51.270;4.456;2024-03-29T12:58:03;1.53;;;1.17;;
9496;SDS011;4786;51.270;4.456;2024-03-29T13:00:32;1.27;;;1.00;;
9496;SDS011;4786;51.270;4.456;2024-03-29T13:03:01;2.50;;;1.10;;
9496;SDS011;4786;51.270;4.456;2024-03-29T13:05:27;1.80;;;1.00;;
9496;SDS011;4786;51.270;4.456;2024-03-29T13:07:59;1.10;;;0.90;;
9496;SDS011;4786;51.270;4.456;2024-03-29T13:10:25;1.60;;;1.00;;
9496;SDS011;4786;51.270;4.456;2024-03-29T13:12:51;1.40;;;1.00;;
9496;SDS011;4786;51.270;4.456;2024-03-29T13:15:20;1.37;;;0.87;;
9496;SDS011;4786;51.270;4.456;2024-03-29T13:17:49;1.10;;;1.00;;
9496;SDS011;4786;51.270;4.456;2024-03-29T13:20:15;1.47;;;1.00;;
9496;SDS011;4786;51.270;4.456;2024-03-29T13:22:45;2.60;;;1.20;;
9496;SDS011;4786;51.270;4.456;2024-03-29T13:25:12;2.47;;;1.00;;
9496;SDS011;4786;51.270;4.456;2024-03-29T13:27:42;1.23;;;0.90;;
9496;SDS011;4786;51.270;4.456;2024-03-29T13:30:09;1.27;;;0.90;;
9496;SDS011;4786;51.270;4.456;2024-03-29T13:32:36;2.20;;;1.10;;
9496;SDS011;4786;51.270;4.456;2024-03-29T13:35:05;1.67;;;1.10;;
9496;SDS011;4786;51.270;4.456;2024-03-29T13:37:43;4.73;;;1.20;;
9496;SDS011;4786;51.270;4.456;2024-03-29T13:40:13;2.67;;;0.77;;
9496;SDS011;4786;51.270;4.456;2024-03-29T13:42:39;5.40;;;1.30;;
9496;SDS011;4786;51.270;4.456;2024-03-29T13:45:06;0.90;;;0.90;;
9496;SDS011;4786;51.270;4.456;2024-03-29T13:47:33;1.87;;;1.20;;
9496;SDS011;4786;51.270;4.456;2024-03-29T13:50:00;2.60;;;1.20;;
9496;SDS011;4786;51.270;4.456;2024-03-29T13:52:25;1.63;;;1.03;;
9496;SDS011;4786;51.270;4.456;2024-03-29T13:54:55;1.43;;;1.00;;
9496;SDS011;4786;51.270;4.456;2024-03-29T13:57:20;3.13;;;1.20;;
9496;SDS011;4786;51.270;4.456;2024-03-29T13:59:46;1.27;;;1.17;;
9496;SDS011;4786;51.270;4.456;2024-03-29T14:02:13;1.27;;;1.00;;
9496;SDS011;4786;51.270;4.456;2024-03-29T14:04:43;1.43;;;0.83;;
9496;SDS011;4786;51.270;4.456;2024-03-29T14:07:10;1.57;;;1.00;;
9496;SDS011;4786;51.270;4.456;2024-03-29T14:09:40;0.93;;;0.80;;
9496;SDS011;4786;51.270;4.456;2024-03-29T14:12:07;1.83;;;1.00;;
9496;SDS011;4786;51.270;4.456;2024-03-29T14:14:33;2.80;;;1.07;;
9496;SDS011;4786;51.270;4.456;2024-03-29T14:16:59;1.20;;;1.10;;
9496;SDS011;4786;51.270;4.456;2024-03-29T14:19:33;1.20;;;1.10;;
9496;SDS011;4786;51.270;4.456;2024-03-29T14:22:00;1.50;;;1.00;;
9496;SDS011;4786;51.270;4.456;2024-03-29T14:24:26;1.30;;;1.20;;
9496;SDS011;4786;51.270;4.456;2024-03-29T14:26:53;4.00;;;1.03;;
9496;SDS011;4786;51.270;4.456;2024-03-29T14:29:19;1.20;;;1.10;;
9496;SDS011;4786;51.270;4.456;2024-03-29T14:31:48;1.07;;;0.97;;
9496;SDS011;4786;51.270;4.456;2024-03-29T14:34:14;1.73;;;1.00;;
9496;SDS011;4786;51.270;4.456;2024-03-29T14:36:41;1.73;;;0.90;;
9496;SDS011;4786;51.270;4.456;2024-03-29T14:39:06;0.70;;;0.70;;
9496;SDS011;4786;51.270;4.456;2024-03-29T14:41:32;1.40;;;0.90;;
9496;SDS011;4786;51.270;4.456;2024-03-29T14:44:01;1.57;;;0.90;;
9496;SDS011;4786;51.270;4.456;2024-03-29T14:46:27;1.47;;;0.80;;
9496;SDS011;4786;51.270;4.456;2024-03-29T14:48:53;1.70;;;1.10;;
9496;SDS011;4786;51.270;4.456;2024-03-29T14:51:19;0.67;;;0.67;;
9496;SDS011;4786;51.270;4.456;2024-03-29T14:53:46;1.70;;;0.87;;
9496;SDS011;4786;51.270;4.456;2024-03-29T14:56:17;3.17;;;1.00;;
9496;SDS011;4786;51.270;4.456;2024-03-29T14:58:43;2.07;;;0.90;;
9496;SDS011;4786;51.270;4.456;2024-03-29T15:01:10;1.90;;;0.90;;
9496;SDS011;4786;51.270;4.456;2024-03-29T15:03:35;2.83;;;1.10;;
9496;SDS011;4786;51.270;4.456;2024-03-29T15:06:01;1.57;;;0.90;;
9496;SDS011;4786;51.270;4.456;2024-03-29T15:08:27;3.53;;;1.10;;
9496;SDS011;4786;51.270;4.456;2024-03-29T15:11:02;1.10;;;0.90;;
9496;SDS011;4786;51.270;4.456;2024-03-29T15:13:28;2.03;;;0.80;;
9496;SDS011;4786;51.270;4.456;2024-03-29T15:15:58;3.40;;;1.00;;
9496;SDS011;4786;51.270;4.456;2024-03-29T15:18:24;1.43;;;0.83;;
9496;SDS011;4786;51.270;4.456;2024-03-29T15:20:54;3.00;;;1.03;;
9496;SDS011;4786;51.270;4.456;2024-03-29T15:23:27;1.63;;;0.87;;